Latest Weather Observations for Cocos Island

IDW60801

Issued at 9:05 am WST Thursday 27 November 2014 (issued every 30 minutes, with the page automatically refreshed every 10 minutes)

About weather observations | Map of weather stations | Latest weather observations for WA | Other Formats
Station Details ID: 200284 Name: COCOS ISLAND AIRPORT Lat: -12.19 Lon: 96.83 Height: 3.0 m
Data from the previous 72 hours. | See also: Recent months at Cocos Island
Date/Time
WST
Temp
°C
App
Temp
°C
Dew
Point
Rel
Hum
%
Delta-T
°C
Wind Press
QNH
hPa
Press
MSL
hPa
Rain
since 9 am
mm
Dir
 
Spd
km/h
Gust
km/h
Spd
kts
Gust
kts
27/09:00am 26.4 24.7 20.5 70 3.9 SE 30 39 16 21 1010.4 - 0.0
27/08:30am 26.1 24.4 20.6 71 3.6 SE 30 39 16 21 1010.3 - 0.0
27/08:00am 25.8 24.5 20.6 73 3.4 ESE 28 35 15 19 1010.0 1010.0 0.0
27/07:30am 25.5 23.6 19.4 69 3.9 SE 28 35 15 19 1009.7 - 0.0
27/07:00am 25.2 23.8 20.5 75 3.1 SE 28 35 15 19 1009.4 - 0.0
27/06:30am 25.2 23.6 20.1 73 3.3 SE 28 35 15 19 1009.2 - 0.0
27/06:00am 25.2 23.5 20.6 75 3.0 SE 30 39 16 21 1009.1 - 0.0
27/05:30am 25.2 24.0 20.8 76 2.9 SE 28 35 15 19 1008.9 - 0.0
27/05:00am 25.3 24.0 20.7 75 3.0 SE 28 35 15 19 1008.6 1008.6 0.0
27/04:30am 25.4 24.2 20.8 75 3.0 ESE 28 35 15 19 1008.5 - 0.0
27/04:00am 25.5 24.9 21.3 77 2.8 ESE 26 32 14 17 1008.7 - 0.0
27/03:30am 25.6 25.0 21.2 76 2.9 ESE 26 32 14 17 1008.7 - 0.0
27/03:00am 25.6 24.7 20.6 74 3.3 SE 26 32 14 17 1008.9 - 0.0
27/02:30am 25.8 25.2 21.3 76 3.0 SE 26 32 14 17 1009.3 - 0.0
27/02:00am 25.9 26.0 21.9 78 2.7 SE 24 30 13 16 1009.8 1009.8 0.0
27/01:30am 25.9 25.4 21.5 76 2.9 SE 26 32 14 17 1010.2 - 0.0
27/01:00am 26.1 26.4 21.6 76 3.0 SE 22 32 12 17 1010.5 - 0.0
27/12:30am 26.1 26.3 21.3 75 3.2 ESE 22 28 12 15 1010.9 - 0.0
27/12:00am 26.1 26.4 21.6 76 3.0 ESE 22 28 12 15 1011.1 - 0.0
 
Date/Time
WST
Temp
°C
App
Temp
°C
Dew
Point
Rel
Hum
%
Delta-T
°C
Wind Press
QNH
hPa
Press
MSL
hPa
Rain
since 9 am
mm
Dir
 
Spd
km/h
Gust
km/h
Spd
kts
Gust
kts
26/11:30pm 26.1 27.0 21.9 77 2.8 ESE 20 28 11 15 1011.3 - 0.0
26/11:00pm 26.3 26.3 21.6 75 3.1 ESE 24 28 13 15 1011.2 1011.2 0.0
26/10:30pm 26.2 26.6 21.7 76 3.0 ESE 22 30 12 16 1011.0 - 0.0
26/10:00pm 26.3 26.6 21.5 75 3.2 ESE 22 30 12 16 1010.7 - 0.0
26/09:30pm 26.3 26.6 21.5 75 3.2 ESE 22 28 12 15 1010.4 - 0.0
26/09:00pm 26.4 26.7 21.6 75 3.2 ESE 22 30 12 16 1010.3 - 0.0
26/08:30pm 26.4 27.2 21.8 76 3.1 ESE 20 26 11 14 1010.0 - 0.0
26/08:00pm 26.5 27.3 21.7 75 3.2 ESE 20 26 11 14 1009.9 1009.9 0.0
26/07:30pm 26.5 26.5 20.9 71 3.7 ESE 22 28 12 15 1009.7 - 0.0
26/07:00pm 27.0 27.6 21.4 71 3.7 ESE 20 28 11 15 1009.6 - 0.0
26/06:30pm 27.0 27.6 21.3 71 3.8 ESE 20 28 11 15 1009.3 - 0.0
26/06:00pm 27.3 26.8 20.8 67 4.3 ESE 24 28 13 15 1009.0 - 0.0
26/05:30pm 27.4 27.5 21.1 68 4.2 ESE 22 30 12 16 1008.9 - 0.0
26/05:00pm 28.0 28.0 21.7 68 4.2 ESE 24 32 13 17 1008.8 1008.8 0.0
26/04:30pm 27.8 27.7 21.4 68 4.3 ESE 24 30 13 16 1008.8 - 0.0
26/04:00pm 29.0 29.3 22.2 66 4.6 ESE 24 32 13 17 1008.8 - 0.0
26/03:30pm 28.3 28.1 21.3 65 4.7 SE 24 30 13 16 1009.1 - 0.0
26/03:00pm 28.2 27.9 21.8 68 4.3 ESE 26 33 14 18 1009.3 - 0.0
26/02:30pm 28.7 28.3 21.7 66 4.7 ESE 26 32 14 17 1009.7 - 0.0
26/02:00pm 28.5 27.8 21.8 67 4.5 SE 28 35 15 19 1009.9 1009.9 0.0
26/01:30pm 28.6 28.1 21.4 65 4.8 SE 26 32 14 17 1010.1 - 0.0
26/01:00pm 28.2 27.7 21.5 67 4.5 SE 26 33 14 18 1010.2 - 0.0
26/12:30pm 28.6 28.2 21.6 66 4.7 SE 26 33 14 18 1010.4 - 0.0
26/12:00pm 28.2 27.6 20.6 63 5.0 SE 24 33 13 18 1010.6 - 0.0
26/11:30am 28.0 26.6 19.7 60 5.4 SE 26 32 14 17 1010.8 - 0.0
26/11:00am 27.5 26.8 21.0 67 4.3 SE 26 32 14 17 1010.9 1010.9 0.0
26/10:30am 27.9 27.2 21.0 66 4.6 SE 26 33 14 18 1011.0 - 0.0
26/10:00am 27.3 26.7 20.5 66 4.5 SE 24 30 13 16 1011.0 - 0.0
26/09:30am 27.1 26.0 20.2 66 4.5 SE 26 33 14 18 1010.8 - 0.0
26/09:00am 26.8 26.0 20.9 70 3.9 SE 26 35 14 19 1010.6 - 0.0
26/08:30am 26.5 25.9 21.2 72 3.5 SE 26 32 14 17 1010.4 - 0.0
26/08:00am 25.9 26.0 21.2 75 3.1 ESE 22 28 12 15 1010.3 1010.3 0.0
26/07:30am 25.6 25.5 20.7 74 3.2 SE 22 30 12 16 1010.1 - 0.0
26/07:00am 25.4 24.9 20.7 75 3.1 ESE 24 30 13 16 1009.6 - 0.0
26/06:30am 25.4 25.0 21.0 76 2.9 SE 24 32 13 17 1009.2 - 0.0
26/06:00am 25.4 24.4 20.5 74 3.2 ESE 26 35 14 19 1009.1 - 0.0
26/05:30am 25.4 24.7 20.3 73 3.3 SE 24 35 13 19 1009.0 - 0.0
26/05:00am 25.4 24.7 21.0 76 2.9 ESE 26 32 14 17 1009.0 1009.0 0.0
26/04:30am 25.5 24.5 21.3 77 2.8 ESE 28 37 15 20 1009.0 - 0.0
26/04:00am 25.5 24.9 21.3 77 2.8 SE 26 33 14 18 1009.2 - 0.0
26/03:30am 25.6 24.9 21.1 76 3.0 SE 26 35 14 19 1009.5 - 0.0
26/03:00am 25.6 24.6 21.2 76 2.9 SE 28 35 15 19 1009.6 - 0.0
26/02:30am 25.8 24.9 21.4 76 2.9 SE 28 35 15 19 1010.1 - 0.0
26/02:00am 25.9 25.1 21.7 77 2.8 SE 28 37 15 20 1010.2 1010.2 0.0
26/01:30am 26.0 25.4 22.0 78 2.7 SE 28 35 15 19 1010.7 - 0.0
26/01:00am 26.2 26.5 22.3 79 2.6 SE 24 33 13 18 1011.2 - 0.0
26/12:30am 26.2 26.3 21.9 77 2.9 SE 24 33 13 18 1011.5 - 0.0
26/12:00am 26.3 25.6 21.8 76 3.0 SE 28 33 15 18 1011.7 - 0.0
 
Date/Time
WST
Temp
°C
App
Temp
°C
Dew
Point
Rel
Hum
%
Delta-T
°C
Wind Press
QNH
hPa
Press
MSL
hPa
Rain
since 9 am
mm
Dir
 
Spd
km/h
Gust
km/h
Spd
kts
Gust
kts
25/11:30pm 26.3 26.1 22.1 77 2.8 SE 26 33 14 18 1011.7 - 0.0
25/11:00pm 26.5 26.7 22.0 76 3.0 SE 24 32 13 17 1011.7 1011.7 0.0
25/10:30pm 26.4 26.4 21.6 75 3.2 SE 24 32 13 17 1011.7 - 0.0
25/10:00pm 26.5 26.2 21.9 76 3.1 SE 26 35 14 19 1011.4 - 0.0
25/09:30pm 26.4 26.2 22.1 77 2.9 SE 26 32 14 17 1011.3 - 0.0
25/09:00pm 26.5 26.8 22.3 78 2.8 SE 24 32 13 17 1011.2 - 0.0
25/08:30pm 26.5 27.2 22.2 77 2.9 SE 22 28 12 15 1010.9 - 0.0
25/08:00pm 26.5 27.0 22.0 76 3.0 SE 22 28 12 15 1010.5 1010.5 0.0
25/07:30pm 26.4 27.0 22.1 77 2.9 SSE 22 30 12 16 1010.2 - 0.0
25/07:00pm 26.9 27.4 22.0 74 3.3 SE 22 30 12 16 1010.1 - 0.0
25/06:30pm 27.4 27.8 22.4 74 3.4 SE 24 30 13 16 1010.0 - 0.0
25/06:00pm 27.7 28.6 21.9 70 3.9 SE 20 28 11 15 1009.9 - 0.0
25/05:30pm 27.8 28.2 21.8 70 4.0 SE 22 28 12 15 1009.7 - 0.0
25/05:00pm 27.9 28.6 22.3 71 3.8 SE 22 30 12 16 1009.7 1009.7 0.0
25/04:30pm 28.0 28.9 21.9 69 4.1 SE 20 28 11 15 1009.8 - 0.0
25/04:00pm 28.3 29.0 22.2 69 4.1 SE 22 28 12 15 1010.2 - 0.0
25/03:30pm 28.3 29.1 22.4 70 4.0 SE 22 28 12 15 1010.4 - 0.0
25/03:00pm 28.1 28.0 22.3 70 3.9 SE 26 33 14 18 1010.7 - 0.0
25/02:30pm 28.2 28.7 22.6 71 3.8 ESE 24 32 13 17 1011.1 - 0.0
25/02:00pm 28.2 28.0 22.0 69 4.2 SE 26 33 14 18 1011.4 1011.4 0.0
25/01:30pm 27.9 27.6 21.9 70 4.0 ESE 26 32 14 17 1011.8 - 0.0
25/01:00pm 28.1 27.8 21.8 68 4.2 ESE 26 32 14 17 1012.1 - 0.0
25/12:30pm 28.2 28.4 22.0 69 4.2 ESE 24 30 13 16 1012.2 - 0.0
25/12:00pm 28.0 28.9 22.7 73 3.6 SE 22 30 12 16 1012.3 - 0.0
25/11:30am 28.0 28.5 22.7 73 3.6 SE 24 32 13 17 1012.4 - 0.0
25/11:00am 27.3 27.7 22.4 74 3.3 SE 24 30 13 16 1012.5 1012.5 0.0
25/10:30am 27.3 27.3 22.4 74 3.3 SE 26 33 14 18 1012.5 - 0.0
25/10:00am 27.2 27.0 22.1 73 3.4 SE 26 33 14 18 1012.4 - 0.0
25/09:30am 26.9 26.7 22.1 75 3.2 SE 26 32 14 17 1012.1 - 0.0
25/09:00am 26.7 26.7 22.4 77 2.9 SE 26 32 14 17 1011.9 - 0.0
25/08:30am 26.5 26.2 21.9 76 3.1 SE 26 33 14 18 1011.8 - 0.0
25/08:00am 26.2 26.6 22.5 80 2.5 SE 24 30 13 16 1011.5 1011.5 0.0
25/07:30am 25.9 26.4 21.9 78 2.7 ESE 22 28 12 15 1011.3 - 0.0
25/07:00am 25.8 25.6 22.1 80 2.5 ESE 26 32 14 17 1011.0 - 0.0
25/06:30am 25.7 25.9 22.0 80 2.5 ESE 24 30 13 16 1010.8 - 0.0
25/06:00am 25.6 25.7 21.9 80 2.5 ESE 24 33 13 18 1010.6 - 0.0
25/05:30am 25.6 25.9 22.2 81 2.3 ESE 24 30 13 16 1010.5 - 0.0
25/05:00am 25.5 26.1 22.1 81 2.3 ESE 22 28 12 15 1010.5 1010.5 0.0
25/04:30am 25.6 25.7 21.9 80 2.5 ESE 24 32 13 17 1010.7 - 0.0
25/04:00am 25.5 25.6 21.9 80 2.4 ESE 24 32 13 17 1010.8 - 0.0
25/03:30am 25.6 25.6 21.7 79 2.6 ESE 24 30 13 16 1011.2 - 0.0
25/03:00am 25.7 25.3 21.6 78 2.7 ESE 26 33 14 18 1011.3 - 0.0
25/02:30am 25.9 25.3 21.9 78 2.7 SE 28 37 15 20 1011.6 - 0.0
25/02:00am 25.9 25.3 22.0 79 2.6 SE 28 35 15 19 1011.9 1011.9 0.0
25/01:30am 26.0 25.8 22.0 78 2.7 ESE 26 35 14 19 1012.2 - 0.0
25/01:00am 26.2 25.7 22.2 78 2.7 ESE 28 37 15 20 1012.4 - 0.0
25/12:30am 26.3 25.4 22.1 77 2.8 ESE 30 37 16 20 1012.7 - 0.0
25/12:00am 26.4 25.9 22.2 78 2.8 ESE 28 39 15 21 1012.8 - 0.0
 
Date/Time
WST
Temp
°C
App
Temp
°C
Dew
Point
Rel
Hum
%
Delta-T
°C
Wind Press
QNH
hPa
Press
MSL
hPa
Rain
since 9 am
mm
Dir
 
Spd
km/h
Gust
km/h
Spd
kts
Gust
kts
24/11:30pm 26.4 25.5 22.2 78 2.8 ESE 30 37 16 20 1012.7 - 0.0
24/11:00pm 26.5 26.0 22.2 77 2.9 ESE 28 35 15 19 1012.6 1012.6 0.0
24/10:30pm 26.5 25.9 22.0 76 3.0 ESE 28 35 15 19 1012.6 - 0.0
24/10:00pm 26.6 26.4 22.8 79 2.6 ESE 28 35 15 19 1012.3 - 0.0
24/09:30pm 26.7 26.7 22.4 77 2.9 ESE 26 39 14 21 1012.0 - 0.0
24/09:00pm 26.7 25.7 21.9 75 3.2 ESE 30 41 16 22 1011.6 - 0.0
24/08:30pm 26.8 26.5 22.5 77 2.9 ESE 28 37 15 20 1011.3 - 0.0
24/08:00pm 26.8 25.8 21.9 74 3.3 ESE 30 35 16 19 1011.0 1011.0 0.0
24/07:30pm 26.9 26.4 22.1 75 3.2 ESE 28 33 15 18 1010.6 - 0.0
24/07:00pm 27.2 26.9 22.5 75 3.2 ESE 28 35 15 19 1010.4 - 0.0
24/06:30pm 27.3 26.4 22.1 73 3.5 ESE 30 39 16 21 1010.1 - 0.0
24/06:00pm 27.4 26.9 22.2 73 3.5 ESE 28 37 15 20 1009.9 - 0.0
24/05:30pm 27.7 26.8 22.2 72 3.7 ESE 30 39 16 21 1009.9 - 0.0
24/05:00pm 27.9 27.1 22.4 72 3.7 ESE 30 35 16 19 1009.8 1009.8 0.0
24/04:30pm 28.0 27.6 22.4 71 3.8 ESE 28 35 15 19 1010.0 - 0.0
24/04:00pm 28.6 28.5 22.9 71 3.9 ESE 28 37 15 20 1010.1 - 0.0
24/03:30pm 27.9 27.8 22.9 74 3.4 ESE 28 35 15 19 1010.6 - 0.0
24/03:00pm 28.2 27.8 22.4 71 3.9 ESE 28 35 15 19 1010.9 - 0.0
24/02:30pm 28.7 28.7 23.1 71 3.8 ESE 28 37 15 20 1010.9 - 0.0
24/02:00pm 28.5 28.0 22.9 71 3.8 ESE 30 37 16 20 1011.2 1011.2 0.0
24/01:30pm 28.6 29.3 23.0 71 3.8 ESE 24 33 13 18 1011.4 - 0.0
24/01:00pm 28.6 28.8 22.7 70 4.0 ESE 26 33 14 18 1011.6 - 0.0
24/12:30pm 28.8 29.0 22.8 70 4.1 ESE 26 35 14 19 1012.0 - 0.0
24/12:00pm 28.4 28.6 22.8 71 3.8 ESE 26 35 14 19 1012.1 - 0.0
24/11:30am 28.5 29.2 22.9 71 3.8 ESE 24 33 13 18 1012.3 - 0.0
24/11:00am 27.7 28.5 22.5 73 3.5 ESE 22 32 12 17 1012.7 1012.7 0.0

Other Formats:

Comma delimited format used in spreadsheet applications
http://www.bom.gov.au/fwo/IDW60801/IDW60801.96996.axf

JavaScript Object Notation format (JSON) in row-major order
http://www.bom.gov.au/fwo/IDW60801/IDW60801.96996.json